createdAt,value
2023-04-19T00:02:11.649Z,43.60
2023-04-19T00:04:38.377Z,43.40
2023-04-19T00:07:04.981Z,43.30
2023-04-19T00:11:58.557Z,43.40
2023-04-19T00:14:25.047Z,43.10
2023-04-19T00:19:18.724Z,43.10
2023-04-19T00:21:45.220Z,43.30
2023-04-19T00:24:11.759Z,43.30
2023-04-19T00:26:38.245Z,43.20
2023-04-19T00:29:04.802Z,43.50
2023-04-19T00:31:31.388Z,43.00
2023-04-19T00:36:25.116Z,43.30
2023-04-19T00:38:51.638Z,42.30
2023-04-19T00:41:18.172Z,43.20
2023-04-19T00:43:44.697Z,43.20
2023-04-19T00:46:11.259Z,43.20
2023-04-19T00:48:37.795Z,43.30
2023-04-19T00:51:04.355Z,42.60
2023-04-19T00:55:57.911Z,43.40
2023-04-19T00:58:24.440Z,43.20
2023-04-19T01:00:50.973Z,43.90
2023-04-19T01:05:44.735Z,43.70
2023-04-19T01:08:11.281Z,43.10
2023-04-19T01:10:37.785Z,43.40
2023-04-19T01:13:04.318Z,43.20
2023-04-19T01:15:30.806Z,43.20
2023-04-19T01:17:57.378Z,42.30
2023-04-19T01:22:50.929Z,43.50
2023-04-19T01:25:17.444Z,43.20
2023-04-19T01:27:43.959Z,43.20
2023-04-19T01:30:10.430Z,43.20
2023-04-19T01:32:37.049Z,43.30
2023-04-19T01:35:03.589Z,43.60
2023-04-19T01:37:30.136Z,43.40
2023-04-19T01:39:56.699Z,43.20
2023-04-19T01:42:23.211Z,43.40
2023-04-19T01:44:49.715Z,43.40
2023-04-19T01:47:16.222Z,43.40
2023-04-19T01:52:09.766Z,43.00
2023-04-19T01:54:36.290Z,43.00
2023-04-19T01:57:02.860Z,43.40
2023-04-19T01:59:29.369Z,43.20
2023-04-19T02:01:55.967Z,43.00
2023-04-19T02:04:22.552Z,42.90
2023-04-19T02:06:49.099Z,43.20
2023-04-19T02:09:15.605Z,43.10
2023-04-19T02:11:42.124Z,42.90
2023-04-19T02:14:08.676Z,42.90
2023-04-19T02:16:36.216Z,43.20
2023-04-19T02:19:03.042Z,43.10
2023-04-19T02:21:29.541Z,43.40
2023-04-19T02:23:56.040Z,43.10
2023-04-19T02:26:22.609Z,43.10
2023-04-19T02:28:49.122Z,43.50
2023-04-19T02:31:15.710Z,42.70
2023-04-19T02:33:42.286Z,43.10
2023-04-19T02:36:08.862Z,43.00
2023-04-19T02:38:35.385Z,43.30
2023-04-19T02:41:01.924Z,43.40
2023-04-19T02:43:28.476Z,43.00
2023-04-19T02:45:54.974Z,43.30
2023-04-19T02:48:21.523Z,42.30
2023-04-19T02:50:48.046Z,43.30
2023-04-19T02:53:14.565Z,43.10
2023-04-19T02:55:41.180Z,43.00
2023-04-19T02:58:07.753Z,42.90
2023-04-19T03:00:34.266Z,42.90
2023-04-19T03:03:00.998Z,43.00
2023-04-19T03:05:27.722Z,42.80
2023-04-19T03:07:54.277Z,43.20
2023-04-19T03:10:20.772Z,43.00
2023-04-19T03:12:47.280Z,43.30
2023-04-19T03:15:13.831Z,43.20
2023-04-19T03:17:40.397Z,43.20
2023-04-19T03:20:06.894Z,43.30
2023-04-19T03:22:33.435Z,43.10
2023-04-19T03:24:59.932Z,43.10
2023-04-19T03:27:26.442Z,43.60
2023-04-19T03:29:52.933Z,43.40
2023-04-19T03:32:19.444Z,42.90
2023-04-19T03:37:12.960Z,43.50
2023-04-19T03:39:39.492Z,43.00
2023-04-19T03:42:06.009Z,43.50
2023-04-19T03:46:59.612Z,43.20
2023-04-19T03:49:26.145Z,43.40
2023-04-19T03:51:52.687Z,43.10
2023-04-19T03:54:19.232Z,42.50
2023-04-19T03:56:45.729Z,43.70
2023-04-19T03:59:12.257Z,43.10
2023-04-19T04:04:05.995Z,43.20
2023-04-19T04:06:32.761Z,43.40
2023-04-19T04:08:59.327Z,42.40
2023-04-19T04:11:25.856Z,43.20
2023-04-19T04:13:52.346Z,43.10
2023-04-19T04:16:18.862Z,42.90
2023-04-19T04:18:45.358Z,43.10
2023-04-19T04:21:11.933Z,43.10
2023-04-19T04:23:38.447Z,43.10
2023-04-19T04:26:04.996Z,43.40
2023-04-19T04:35:52.656Z,43.10
2023-04-19T04:38:24.524Z,42.90
2023-04-19T04:40:51.704Z,42.80
2023-04-19T04:43:18.228Z,43.30
2023-04-19T04:45:44.874Z,43.20
2023-04-19T04:48:11.429Z,43.30
2023-04-19T04:50:37.972Z,43.40
2023-04-19T04:53:04.445Z,43.50
2023-04-19T04:55:30.961Z,43.30
2023-04-19T04:57:57.528Z,43.40
2023-04-19T05:00:24.069Z,43.20
2023-04-19T05:05:17.764Z,43.20
2023-04-19T05:07:44.230Z,42.40
2023-04-19T05:10:10.754Z,43.60
2023-04-19T05:12:37.269Z,43.00
2023-04-19T05:15:03.789Z,43.10
2023-04-19T05:17:30.296Z,43.50
2023-04-19T05:19:56.809Z,43.60
2023-04-19T05:22:23.310Z,43.20
2023-04-19T05:24:49.829Z,43.50
2023-04-19T05:27:16.321Z,43.30
2023-04-19T05:29:42.802Z,43.10
2023-04-19T05:32:09.321Z,43.10
2023-04-19T05:34:35.812Z,43.20
2023-04-19T05:39:29.331Z,43.10
2023-04-19T05:41:55.858Z,43.30
2023-04-19T05:44:22.390Z,43.20
2023-04-19T05:46:48.903Z,43.30
2023-04-19T05:49:15.462Z,43.20
2023-04-19T05:51:41.959Z,43.10
2023-04-19T05:54:08.472Z,43.60
2023-04-19T05:56:34.959Z,43.20
2023-04-19T05:59:01.524Z,43.40
2023-04-19T06:01:28.028Z,43.20
2023-04-19T06:03:54.874Z,43.30
2023-04-19T06:06:21.558Z,43.30
2023-04-19T06:08:48.143Z,43.00
2023-04-19T06:11:23.208Z,43.50
2023-04-19T06:13:53.314Z,43.30
2023-04-19T06:18:46.869Z,43.20
2023-04-19T06:21:13.414Z,42.40
2023-04-19T06:23:39.960Z,43.00
2023-04-19T06:26:06.466Z,43.20
2023-04-19T06:28:32.983Z,43.60
2023-04-19T06:30:59.465Z,43.20
2023-04-19T06:33:25.995Z,43.40
2023-04-19T06:38:19.582Z,43.10
2023-04-19T06:40:46.064Z,43.10
2023-04-19T06:43:12.612Z,43.60
2023-04-19T06:45:39.157Z,43.20
2023-04-19T06:48:05.729Z,43.10
2023-04-19T06:50:32.363Z,43.20
2023-04-19T06:52:58.973Z,43.20
2023-04-19T06:55:25.520Z,43.20
2023-04-19T06:57:52.042Z,43.40
2023-04-19T07:00:18.636Z,43.40
2023-04-19T07:05:12.287Z,43.60
2023-04-19T07:07:38.774Z,43.40
2023-04-19T07:10:05.310Z,43.50
2023-04-19T07:12:31.859Z,43.40
2023-04-19T07:14:58.376Z,43.20
2023-04-19T07:17:24.918Z,43.40
2023-04-19T07:19:51.502Z,43.60
2023-04-19T07:22:18.030Z,43.70
2023-04-19T07:24:44.583Z,43.50
2023-04-19T07:27:11.260Z,43.80
2023-04-19T07:29:37.838Z,43.80
2023-04-19T07:32:04.358Z,43.60
2023-04-19T07:34:30.907Z,43.40
2023-04-19T07:36:57.549Z,43.60
2023-04-19T07:39:24.072Z,43.50
2023-04-19T07:41:50.652Z,43.50
2023-04-19T07:44:17.321Z,43.70
2023-04-19T07:46:44.014Z,43.80
2023-04-19T07:49:10.626Z,43.70
2023-04-19T07:51:37.190Z,43.50
2023-04-19T07:54:03.703Z,43.70
2023-04-19T07:56:30.269Z,43.60
2023-04-19T07:59:07.489Z,44.00
2023-04-19T08:01:35.252Z,43.80
2023-04-19T08:06:29.089Z,43.60
2023-04-19T08:08:55.654Z,43.70
2023-04-19T08:14:02.551Z,43.60
2023-04-19T08:17:18.507Z,43.90
2023-04-19T08:19:19.641Z,43.80
2023-04-19T08:21:46.184Z,43.90
2023-04-19T08:26:39.745Z,43.90
2023-04-19T08:29:06.267Z,43.80
2023-04-19T08:33:59.867Z,43.80
2023-04-19T08:36:37.215Z,43.40
2023-04-19T08:39:12.330Z,43.60
2023-04-19T08:42:04.877Z,43.70
2023-04-19T08:44:36.662Z,43.50
2023-04-19T08:47:04.134Z,43.50
2023-04-19T08:51:57.738Z,43.60
2023-04-19T08:54:24.323Z,43.40
2023-04-19T08:56:50.838Z,43.40
2023-04-19T08:59:20.274Z,44.00
2023-04-19T09:01:47.442Z,43.60
2023-04-19T09:04:34.020Z,43.70
2023-04-19T09:07:00.536Z,43.40
2023-04-19T09:14:23.607Z,43.80
2023-04-19T09:16:50.163Z,43.70
2023-04-19T09:19:24.011Z,43.60
2023-04-19T09:21:51.585Z,43.80
2023-04-19T09:24:18.164Z,43.40
2023-04-19T09:26:44.741Z,43.30
2023-04-19T09:29:13.329Z,43.40
2023-04-19T09:31:50.859Z,43.60
2023-04-19T09:34:18.499Z,43.30
2023-04-19T09:36:45.054Z,43.50
2023-04-19T09:39:11.535Z,43.60
2023-04-19T09:41:39.065Z,43.60
2023-04-19T09:46:34.430Z,43.50
2023-04-19T09:49:06.549Z,43.40
2023-04-19T09:51:36.126Z,43.50
2023-04-19T09:54:02.588Z,43.30
2023-04-19T09:56:29.095Z,43.50
2023-04-19T09:59:04.757Z,43.60
2023-04-19T10:01:39.416Z,43.00
2023-04-19T10:04:19.905Z,43.40
2023-04-19T10:07:19.386Z,43.60
2023-04-19T10:09:51.728Z,44.00
2023-04-19T10:12:39.174Z,43.60
2023-04-19T10:15:06.475Z,43.90
2023-04-19T10:17:32.993Z,44.00
2023-04-19T10:19:59.601Z,43.90
2023-04-19T10:22:26.120Z,43.90
2023-04-19T10:24:52.694Z,43.60
2023-04-19T10:27:19.237Z,43.40
2023-04-19T10:29:45.753Z,44.10
2023-04-19T10:32:12.417Z,44.00
2023-04-19T10:34:38.987Z,44.10
2023-04-19T10:37:05.504Z,44.30
2023-04-19T10:41:59.049Z,44.10
2023-04-19T10:44:25.572Z,44.40
2023-04-19T10:49:19.237Z,44.00
2023-04-19T10:51:45.871Z,44.00
2023-04-19T10:54:12.355Z,44.50
2023-04-19T10:56:38.898Z,44.70
2023-04-19T10:59:05.395Z,44.20
2023-04-19T11:01:31.959Z,44.40
2023-04-19T11:03:58.645Z,44.60
2023-04-19T11:06:25.195Z,44.40
2023-04-19T11:08:51.666Z,43.90
2023-04-19T11:11:18.131Z,44.20
2023-04-19T11:13:44.583Z,44.30
2023-04-19T11:16:11.081Z,44.00
2023-04-19T11:18:37.630Z,44.10
2023-04-19T11:21:04.201Z,44.20
2023-04-19T11:23:30.709Z,44.10
2023-04-19T11:25:57.233Z,44.20
2023-04-19T11:28:23.700Z,44.30
2023-04-19T11:30:50.219Z,44.10
2023-04-19T11:33:16.729Z,44.40
2023-04-19T11:35:43.197Z,44.00
2023-04-19T11:38:09.666Z,44.20
2023-04-19T11:40:36.162Z,44.20
2023-04-19T11:43:02.642Z,44.00
2023-04-19T11:45:30.854Z,44.00
2023-04-19T11:47:59.051Z,44.10
2023-04-19T11:50:25.568Z,44.20
2023-04-19T11:52:52.083Z,44.20
2023-04-19T11:55:18.564Z,44.00
2023-04-19T11:57:45.060Z,44.10
2023-04-19T12:00:11.600Z,44.40
2023-04-19T12:02:38.283Z,44.20
2023-04-19T12:07:32.525Z,44.30
2023-04-19T12:09:59.071Z,44.00
2023-04-19T12:14:52.568Z,44.10
2023-04-19T12:17:19.189Z,44.00
2023-04-19T12:22:12.820Z,43.90
2023-04-19T12:24:39.316Z,43.80
2023-04-19T12:27:05.800Z,44.20
2023-04-19T12:29:33.142Z,44.20
2023-04-19T12:31:59.703Z,44.20
2023-04-19T12:34:26.220Z,43.10
2023-04-19T12:39:19.749Z,43.90
2023-04-19T12:41:46.218Z,44.00
2023-04-19T12:46:40.005Z,44.00
2023-04-19T12:51:33.735Z,44.00
2023-04-19T12:54:00.283Z,44.30
2023-04-19T12:56:26.765Z,43.80
2023-04-19T12:58:53.290Z,44.40
2023-04-19T13:01:19.883Z,43.80
2023-04-19T13:03:46.605Z,43.90
2023-04-19T13:06:13.210Z,43.90
2023-04-19T13:08:46.173Z,44.20
2023-04-19T13:11:14.141Z,44.10
2023-04-19T13:13:40.600Z,43.60
2023-04-19T13:16:07.143Z,44.00
2023-04-19T13:18:33.622Z,44.20
2023-04-19T13:21:00.139Z,44.20
2023-04-19T13:25:53.685Z,44.00
2023-04-19T13:28:20.173Z,43.40
2023-04-19T13:30:46.671Z,43.90
2023-04-19T13:33:13.246Z,43.70
2023-04-19T13:35:39.811Z,43.10
2023-04-19T13:38:06.336Z,43.70
2023-04-19T13:40:32.869Z,44.10
2023-04-19T13:42:59.419Z,44.10
2023-04-19T13:45:25.951Z,44.10
2023-04-19T13:47:52.515Z,44.10
2023-04-19T13:50:19.076Z,44.30
2023-04-19T13:52:45.569Z,43.90
2023-04-19T13:55:12.074Z,44.10
2023-04-19T13:57:38.606Z,44.30
2023-04-19T14:00:05.257Z,44.20
2023-04-19T14:02:31.858Z,43.80
2023-04-19T14:04:58.473Z,44.40
2023-04-19T14:07:25.013Z,44.00
2023-04-19T14:09:51.537Z,44.60
2023-04-19T14:12:18.032Z,44.00
2023-04-19T14:14:44.594Z,43.80
2023-04-19T14:17:11.116Z,43.90
2023-04-19T14:19:37.660Z,44.10
2023-04-19T14:22:04.192Z,43.90
2023-04-19T14:24:30.700Z,43.90
2023-04-19T14:29:29.956Z,44.20
2023-04-19T14:31:56.554Z,44.20
2023-04-19T14:34:23.091Z,44.30
2023-04-19T14:36:51.529Z,44.20
2023-04-19T14:39:18.479Z,44.80
2023-04-19T14:41:45.130Z,44.50
2023-04-19T14:46:38.680Z,44.50
2023-04-19T14:49:05.177Z,44.30
2023-04-19T14:51:31.683Z,44.80
2023-04-19T14:53:58.192Z,45.10
2023-04-19T14:56:24.691Z,45.30
2023-04-19T14:58:51.245Z,44.60
2023-04-19T15:01:17.791Z,45.00
2023-04-19T15:03:44.620Z,45.40
2023-04-19T15:06:11.357Z,45.00
2023-04-19T15:08:37.882Z,44.90
2023-04-19T15:11:04.375Z,45.10
2023-04-19T15:13:30.917Z,44.90
2023-04-19T15:15:57.468Z,44.50
2023-04-19T15:18:24.060Z,44.60
2023-04-19T15:20:50.615Z,44.80
2023-04-19T15:23:17.176Z,44.80
2023-04-19T15:28:10.754Z,44.30
2023-04-19T15:30:37.238Z,44.30
2023-04-19T15:33:03.808Z,43.90
2023-04-19T15:35:30.356Z,44.70
2023-04-19T15:37:56.915Z,44.60
2023-04-19T15:42:50.494Z,44.30
2023-04-19T15:45:17.062Z,44.70
2023-04-19T15:47:43.621Z,44.30
2023-04-19T15:50:10.156Z,44.80
2023-04-19T15:52:36.725Z,44.20
2023-04-19T15:55:03.290Z,44.40
2023-04-19T15:57:29.816Z,44.20
2023-04-19T16:02:23.521Z,44.60
2023-04-19T16:04:50.341Z,44.60
2023-04-19T16:07:16.929Z,44.40
2023-04-19T16:09:43.482Z,44.40
2023-04-19T16:12:09.986Z,44.30
2023-04-19T16:14:36.557Z,44.60
2023-04-19T16:19:30.120Z,44.60
2023-04-19T16:21:56.634Z,44.80
2023-04-19T16:24:23.171Z,44.30
2023-04-19T16:29:16.926Z,44.30
2023-04-19T16:31:43.694Z,44.20
2023-04-19T16:34:10.228Z,44.00
2023-04-19T16:36:36.777Z,44.70
2023-04-19T16:39:03.304Z,44.60
2023-04-19T16:41:29.841Z,44.80
2023-04-19T16:43:56.499Z,44.70
2023-04-19T16:46:23.146Z,44.90
2023-04-19T16:48:49.733Z,44.50
2023-04-19T16:53:43.356Z,44.50
2023-04-19T16:56:09.884Z,44.50
2023-04-19T16:58:36.426Z,45.50
2023-04-19T17:01:03.014Z,44.90
2023-04-19T17:03:29.737Z,44.60
2023-04-19T17:05:56.323Z,44.50
2023-04-19T17:10:49.910Z,44.40
2023-04-19T17:13:16.502Z,44.20
2023-04-19T17:15:43.012Z,44.40
2023-04-19T17:20:36.765Z,44.40
2023-04-19T17:23:03.304Z,44.20
2023-04-19T17:25:29.850Z,44.30
2023-04-19T17:27:56.388Z,44.60
2023-04-19T17:30:22.971Z,44.50
2023-04-19T17:32:49.571Z,44.80
2023-04-19T17:37:43.132Z,44.70
2023-04-19T17:40:09.636Z,44.50
2023-04-19T17:42:36.180Z,44.70
2023-04-19T17:45:02.749Z,43.70
2023-04-19T17:47:29.304Z,44.50
2023-04-19T17:49:55.819Z,44.20
2023-04-19T17:52:22.339Z,44.60
2023-04-19T17:54:48.829Z,44.40
2023-04-19T17:59:42.384Z,44.10
2023-04-19T18:07:04.343Z,44.60
2023-04-19T18:11:57.939Z,44.30
2023-04-19T18:14:24.460Z,44.30
2023-04-19T18:16:51.047Z,44.10
2023-04-19T18:19:17.671Z,44.10
2023-04-19T18:21:44.277Z,44.30
2023-04-19T18:24:10.811Z,44.20
2023-04-19T18:26:37.324Z,44.20
2023-04-19T18:29:03.869Z,44.60
2023-04-19T18:31:30.460Z,44.10
2023-04-19T18:33:57.053Z,44.30
2023-04-19T18:36:23.592Z,44.30
2023-04-19T18:38:50.149Z,44.60
2023-04-19T18:41:16.651Z,44.30
2023-04-19T18:43:54.526Z,44.20
2023-04-19T18:46:29.731Z,45.10
2023-04-19T18:48:56.280Z,44.90
2023-04-19T18:53:49.791Z,44.20
2023-04-19T18:56:16.867Z,44.40
2023-04-19T18:58:43.439Z,44.00
2023-04-19T19:01:10.007Z,44.10
2023-04-19T19:06:06.169Z,43.90
2023-04-19T19:08:32.947Z,44.30
2023-04-19T19:13:29.421Z,44.10
2023-04-19T19:15:55.991Z,43.90
2023-04-19T19:18:22.569Z,44.10
2023-04-19T19:20:51.296Z,44.00
2023-04-19T19:23:18.204Z,43.80
2023-04-19T19:25:44.902Z,43.90
2023-04-19T19:28:11.487Z,44.20
2023-04-19T19:30:40.279Z,43.90
2023-04-19T19:33:06.972Z,44.30
2023-04-19T19:35:33.635Z,44.30
2023-04-19T19:38:00.211Z,43.70
2023-04-19T19:40:31.190Z,44.20
2023-04-19T19:42:59.141Z,43.90
2023-04-19T19:45:25.663Z,43.90
2023-04-19T19:47:52.375Z,43.90
2023-04-19T19:52:49.013Z,43.90
2023-04-19T19:55:15.562Z,43.70
2023-04-19T20:05:21.444Z,43.70
2023-04-19T20:08:01.012Z,43.70
2023-04-19T20:10:28.665Z,44.00
2023-04-19T20:12:55.195Z,43.80
2023-04-19T20:15:21.734Z,44.20
2023-04-19T20:20:15.304Z,43.90
2023-04-19T20:22:41.888Z,44.10
2023-04-19T20:25:08.430Z,43.60
2023-04-19T20:27:34.975Z,43.90
2023-04-19T20:30:01.500Z,43.70
2023-04-19T20:32:28.014Z,43.90
2023-04-19T20:34:54.582Z,44.00
2023-04-19T20:37:21.120Z,43.90
2023-04-19T20:39:47.660Z,43.90
2023-04-19T20:42:14.173Z,43.50
2023-04-19T20:44:40.641Z,44.20
2023-04-19T20:49:34.202Z,43.50
2023-04-19T20:52:00.695Z,43.80
2023-04-19T20:54:27.231Z,43.40
2023-04-19T20:56:53.767Z,44.20
2023-04-19T20:59:20.353Z,43.80
2023-04-19T21:01:46.908Z,43.60
2023-04-19T21:04:13.699Z,43.50
2023-04-19T21:06:40.356Z,43.40
2023-04-19T21:09:06.895Z,43.50
2023-04-19T21:11:33.390Z,43.10
2023-04-19T21:13:59.931Z,43.40
2023-04-19T21:16:26.561Z,43.60
2023-04-19T21:18:53.134Z,43.50
2023-04-19T21:21:19.687Z,43.20
2023-04-19T21:23:46.340Z,43.40
2023-04-19T21:26:12.877Z,43.40
2023-04-19T21:28:39.395Z,43.90
2023-04-19T21:31:06.036Z,43.30
2023-04-19T21:33:32.614Z,43.60
2023-04-19T21:38:26.188Z,43.70
2023-04-19T21:40:52.710Z,43.20
2023-04-19T21:43:19.190Z,43.90
2023-04-19T21:48:12.749Z,43.30
2023-04-19T21:50:39.289Z,43.20
2023-04-19T21:53:05.803Z,43.10
2023-04-19T21:55:32.347Z,43.30
2023-04-19T21:57:58.927Z,43.10
2023-04-19T22:00:25.565Z,42.50
2023-04-19T22:02:57.842Z,42.60
2023-04-19T22:05:24.589Z,43.20
2023-04-19T22:07:51.152Z,43.10
2023-04-19T22:10:17.719Z,43.00
2023-04-19T22:12:57.302Z,43.70
2023-04-19T22:15:24.844Z,43.20
2023-04-19T22:17:51.370Z,43.10
2023-04-19T22:20:17.915Z,43.00
2023-04-19T22:22:44.422Z,43.00
2023-04-19T22:25:10.977Z,42.90
2023-04-19T22:27:37.513Z,42.60
2023-04-19T22:30:04.036Z,43.30
2023-04-19T22:32:30.648Z,42.70
2023-04-19T22:34:57.222Z,42.90
2023-04-19T22:37:23.789Z,42.60
2023-04-19T22:39:50.300Z,42.80
2023-04-19T22:42:16.836Z,43.10
2023-04-19T22:44:43.377Z,43.30
2023-04-19T22:47:09.925Z,42.70
2023-04-19T22:49:36.430Z,42.60
2023-04-19T22:52:02.974Z,42.70
2023-04-19T22:54:29.514Z,42.80
2023-04-19T22:56:56.047Z,42.70
2023-04-19T23:01:49.714Z,42.90
2023-04-19T23:04:16.332Z,42.80
2023-04-19T23:06:42.889Z,42.60
2023-04-19T23:09:09.405Z,42.60
2023-04-19T23:11:35.946Z,42.70
2023-04-19T23:14:02.468Z,42.70
2023-04-19T23:18:55.972Z,42.90
2023-04-19T23:21:22.567Z,42.80
2023-04-19T23:23:49.058Z,42.70
2023-04-19T23:26:15.601Z,42.60
2023-04-19T23:31:09.181Z,42.40
2023-04-19T23:33:35.717Z,42.60
2023-04-19T23:38:29.207Z,43.00
2023-04-19T23:40:55.690Z,42.30
2023-04-19T23:45:49.250Z,42.50
2023-04-19T23:48:15.726Z,42.60
2023-04-19T23:50:42.221Z,42.60
2023-04-19T23:55:35.726Z,43.30
2023-04-19T23:58:02.211Z,42.00
